GW1159 Weather Reports


time (UTC)temp
F
wind
direction
speed
knots
gust
knots
rain 1hr
in
rain 24hr
in
rain mn
in
humidity
%
barometer
mb
20260506215048 56 0 0.0 1.7 0.00 1.28 1.28 81 1011.3
20260506214556 56 0 0.0 1.7 0.00 1.28 1.28 80 1011.3
20260506214051 55 0 0.0 1.7 0.00 1.28 1.28 80 1011.2
20260506213551 56 0 0.0 1.7 0.00 1.28 1.28 81 1011.2
20260506213056 56 106 0.0 0.9 0.00 1.28 1.28 80 1011.3
20260506212551 56 134 0.0 0.9 0.00 1.28 1.28 80 1011.2
20260506212051 56 0 0.0 0.9 0.00 1.28 1.28 79 1011.2
20260506211554 56 0 0.0 0.9 0.00 1.28 1.28 79 1011.2
20260506211050 57 0 0.0 0.9 0.00 1.28 1.28 78 1011.2
20260506210554 57 0 0.0 1.7 0.00 1.28 1.28 76 1011.1
20260506210053 58 0 0.0 1.7 0.00 1.28 1.28 75 1011.1
20260506205550 58 0 0.0 0.9 0.00 1.28 1.28 72 1011.1
20260506205051 58 0 0.0 0.9 0.00 1.28 1.28 73 1011.0
20260506204555 58 167 0.0 0.9 0.00 1.28 1.28 73 1010.9
20260506204055 58 0 0.0 1.7 0.00 1.28 1.28 73 1011.0
20260506203551 58 155 0.0 1.7 0.00 1.28 1.28 73 1011.1
20260506203053 58 158 0.0 0.9 0.00 1.28 1.28 74 1011.0
20260506202553 58 0 0.0 0.9 0.00 1.28 1.28 74 1011.0
20260506202051 57 137 0.0 0.9 0.00 1.28 1.28 75 1010.9
20260506201553 57 0 0.0 0.9 0.00 1.28 1.28 76 1010.9
20260506201046 57 129 0.0 0.9 0.00 1.28 1.28 77 1010.8
20260506200547 57 136 0.0 0.9 0.00 1.28 1.28 77 1010.8
20260506200056 58 98 0.0 0.0 0.00 1.28 1.28 76 1010.8
20260506195551 58 0 0.0 0.0 0.00 1.28 1.28 76 1010.7
20260506195047 58 0 0.0 0.9 0.00 1.28 1.28 75 1010.7
20260506194552 59 0 0.0 0.9 0.00 1.28 1.28 75 1010.6
20260506194047 59 0 0.0 0.9 0.00 1.28 1.28 74 1010.6
20260506193546 59 0 0.0 1.7 0.00 1.28 1.28 75 1010.6
20260506193049 59 0 0.0 1.7 0.00 1.28 1.28 75 1010.3
20260506192549 59 115 0.0 1.7 0.00 1.28 1.28 73 1010.2
20260506192049 59 0 0.0 0.9 0.00 1.28 1.28 73 1010.2
20260506191553 59 0 0.0 0.0 0.00 1.28 1.28 71 1010.0
20260506191048 60 0 0.0 2.6 0.00 1.28 1.28 71 1009.9
20260506190547 61 0 0.0 2.6 0.00 1.28 1.28 71 1009.9
20260506190053 61 103 0.0 1.7 0.00 1.28 1.28 69 1009.8
20260506185547 61 0 0.0 2.6 0.00 1.28 1.28 67 1009.8
20260506185046 61 0 0.0 2.6 0.00 1.28 1.28 70 1009.7
20260506184558 61 0 0.0 2.6 0.00 1.28 1.28 68 1009.6
20260506184047 62 0 0.0 2.6 0.00 1.28 1.28 69 1009.6
20260506183547 62 65 0.9 2.6 0.00 1.28 1.28 67 1009.6
20260506183057 62 69 0.0 3.5 0.00 1.28 1.28 68 1009.5
20260506182546 62 82 0.9 3.5 0.00 1.28 1.28 68 1009.5
20260506182047 62 3 0.0 3.5 0.00 1.28 1.28 68 1009.5
20260506181552 62 0 0.0 0.9 0.00 1.28 1.28 67 1009.4
20260506181048 62 0 0.0 1.7 0.00 1.28 1.28 69 1009.4
20260506180548 63 314 0.0 3.5 0.00 1.28 1.28 67 1009.2
20260506180052 63 0 0.0 3.5 0.00 1.28 1.28 69 1009.3
20260506175548 63 224 0.9 3.5 0.00 1.28 1.28 68 1009.2
20260506175047 63 0 0.0 3.5 0.00 1.28 1.28 69 1009.2
20260506174559 64 229 0.0 3.5 0.00 1.28 1.28 68 1009.1
20260506174047 64 233 0.9 3.5 0.00 1.28 1.28 67 1009.1
20260506173547 64 174 1.7 4.3 0.00 1.28 1.28 66 1009.1
20260506173122 64 224 0.9 5.2 0.00 1.28 1.28 66 1009.1
20260506172546 64 118 0.9 5.2 0.00 1.28 1.28 67 1009.0
20260506172046 64 142 0.9 4.3 0.00 1.28 1.28 70 1009.0
20260506171552 65 218 0.9 3.5 0.00 1.28 1.28 69 1008.9
20260506171047 65 232 0.0 1.7 0.00 1.28 1.28 72 1008.8
20260506170550 65 0 0.0 2.6 0.00 1.28 1.28 71 1008.9
20260506170056 65 0 0.0 2.6 0.00 1.28 1.28 69 1008.9
20260506165547 65 255 0.0 1.7 0.00 1.28 1.28 70 1008.9
20260506165048 66 0 0.0 1.7 0.00 1.28 1.28 70 1008.9
20260506164552 66 0 0.0 2.6 0.00 1.28 1.28 70 1008.9
20260506164048 66 126 0.0 2.6 0.00 1.28 1.28 69 1008.8
20260506163547 66 140 0.9 3.5 0.00 1.28 1.28 67 1008.8
20260506163054 66 195 0.0 4.3 0.00 1.28 1.28 68 1008.9
20260506162546 66 219 0.9 8.7 0.00 1.28 1.28 69 1008.9
20260506162047 66 220 3.5 8.7 0.00 1.28 1.28 72 1008.9
20260506161600 66 176 0.0 1.7 0.00 1.28 1.28 78 1008.9
20260506161048 66 0 0.0 1.7 0.00 1.28 1.28 80 1008.8
20260506160547 66 226 0.0 1.7 0.00 1.28 1.28 79 1008.9
20260506160109 66 0 0.0 0.0 0.00 1.28 1.28 74 1008.8
20260506155548 66 0 0.0 0.9 0.00 1.28 1.28 77 1008.8
20260506155048 66 0 0.0 1.7 0.00 1.28 1.28 77 1008.8
20260506154602 66 0 0.0 2.6 0.00 1.28 1.28 76 1008.7
20260506154047 66 100 0.0 2.6 0.00 1.28 1.28 77 1008.6
20260506153546 66 55 0.9 2.6 0.00 1.28 1.28 77 1008.7
20260506153054 66 0 0.0 0.9 0.00 1.28 1.28 76 1008.7
20260506152546 67 2 0.0 0.9 0.00 1.28 1.28 75 1008.7
20260506152048 67 1 0.0 1.7 0.00 1.28 1.28 76 1008.6
20260506151555 67 0 0.0 3.5 0.00 1.28 1.28 77 1008.7
20260506151047 66 262 0.0 4.3 0.00 1.28 1.28 75 1008.7
20260506150547 67 223 0.9 4.3 0.00 1.28 1.28 75 1008.7
20260506150100 67 268 0.9 4.3 0.00 1.28 1.28 76 1008.7
20260506145548 67 142 0.0 1.7 0.00 1.28 1.28 78 1008.8
20260506145049 67 131 0.0 1.7 0.00 1.28 1.28 77 1008.9
20260506144612 67 263 0.0 3.5 0.00 1.28 1.28 77 1008.8
20260506144048 66 219 0.0 3.5 0.00 1.28 1.28 77 1008.8
20260506143548 66 215 0.0 5.2 0.00 1.28 1.28 76 1008.7
20260506143056 66 243 0.0 7.8 0.00 1.28 1.28 79 1008.8
20260506142550 66 120 1.7 7.8 0.00 1.28 1.28 78 1008.8
20260506142047 66 243 0.9 6.1 0.00 1.28 1.28 78 1009.0
20260506141556 66 89 1.7 6.1 0.00 1.28 1.28 79 1008.8
20260506141051 67 162 0.9 5.2 0.00 1.28 1.28 79 1008.9
20260506140547 67 96 0.9 5.2 0.00 1.28 1.28 80 1009.0
20260506140105 66 121 1.7 5.2 0.00 1.28 1.28 79 1009.1
20260506135548 67 158 0.9 4.3 0.00 1.28 1.28 79 1009.1
20260506135048 67 243 0.9 4.3 0.00 1.28 1.28 78 1009.1
20260506134601 67 165 0.9 6.1 0.00 1.28 1.28 81 1009.3
20260506134047 66 142 0.9 6.1 0.00 1.28 1.28 79 1009.4
20260506133547 66 208 1.7 4.3 0.00 1.28 1.28 76 1009.5
20260506133134 66 214 1.7 3.5 0.00 1.28 1.28 81 1009.6
20260506132549 65 172 0.9 3.5 0.00 1.28 1.28 83 1009.7
20260506132048 64 107 0.9 3.5 0.00 1.28 1.28 86 1009.8
20260506131554 64 153 0.0 6.1 0.00 1.28 1.28 88 1009.8
20260506131051 64 159 1.7 6.1 0.00 1.28 1.28 87 1009.7
20260506130547 64 83 1.7 6.1 0.01 1.28 1.28 88 1009.7
20260506130140 64 170 0.9 2.6 0.02 1.28 1.28 88 1010.0
20260506125549 64 269 0.0 1.7 0.02 1.28 1.28 89 1010.2
20260506125047 64 0 0.0 1.7 0.02 1.28 1.28 88 1010.0
20260506124554 64 134 0.0 1.7 0.03 1.28 1.28 90 1010.0
20260506124048 64 0 0.0 2.6 0.03 1.28 1.28 89 1010.0
20260506123548 64 0 0.0 2.6 0.03 1.28 1.28 88 1009.9
20260506123055 64 0 0.0 2.6 0.03 1.28 1.28 88 1010.0
20260506122547 64 158 0.0 2.6 0.03 1.28 1.28 89 1009.9
20260506122046 64 0 0.0 2.6 0.03 1.28 1.28 86 1009.7
20260506121556 64 169 0.0 2.6 0.03 1.28 1.28 84 1009.7
20260506121048 64 0 0.0 5.2 0.03 1.28 1.28 86 1009.6
20260506120547 64 0 0.9 5.2 0.01 1.26 1.26 85 1009.8
20260506120104 65 237 1.7 5.2 0.00 1.25 1.25 84 1010.1
20260506115547 65 338 0.9 6.1 0.00 1.25 1.25 83 1009.8
20260506115048 65 309 0.9 8.7 0.00 1.25 1.25 83 1009.8
20260506114603 66 222 2.6 8.7 0.00 1.25 1.25 81 1009.8
20260506114047 66 325 2.6 7.8 0.00 1.25 1.25 79 1009.8
20260506113547 66 251 2.6 9.6 0.00 1.25 1.25 77 1009.6
20260506113058 67 228 2.6 9.6 0.00 1.25 1.25 77 1009.6
20260506112547 67 220 2.6 9.6 0.00 1.25 1.25 75 1009.5
20260506112047 67 229 2.6 9.6 0.00 1.25 1.25 74 1009.5
20260506111554 68 185 0.9 5.2 0.00 1.25 1.25 75 1009.6
20260506111049 68 139 1.7 6.1 0.00 1.25 1.25 75 1009.6
20260506110547 68 217 0.9 6.1 0.00 1.25 1.25 76 1009.6
20260506110054 69 152 0.9 8.7 0.00 1.25 1.25 72 1009.5
20260506105547 69 127 1.7 8.7 0.00 1.25 1.25 73 1009.5
20260506105048 69 193 2.6 8.7 0.00 1.25 1.25 72 1009.5
20260506104600 69 141 1.7 6.1 0.00 1.25 1.25 76 1009.6
20260506104049 69 143 3.5 8.7 0.00 1.25 1.25 75 1009.7
20260506103549 69 71 1.7 8.7 0.00 1.25 1.25 76 1009.5
20260506103049 69 132 1.7 10.4 0.00 1.25 1.25 76 1009.7
20260506102549 69 205 2.6 10.4 0.00 1.25 1.25 76 1009.5
20260506102048 69 88 1.7 11.3 0.00 1.25 1.25 78 1009.4
20260506101550 69 150 1.7 11.3 0.00 1.25 1.25 80 1009.6
20260506101047 68 58 3.5 11.3 0.00 1.25 1.25 77 1009.5
20260506100547 69 229 1.7 10.4 0.00 1.25 1.25 83 1009.6
20260506100106 68 156 0.9 5.2 0.00 1.25 1.25 85 1009.4
20260506095547 67 259 0.0 5.2 0.00 1.36 1.25 88 1009.6
20260506095047 67 167 1.7 5.2 0.00 1.36 1.25 87 1009.7
20260506094600 66 309 0.0 3.5 0.00 1.36 1.25 91 1009.8
20260506094046 65 84 0.9 3.5 0.00 1.36 1.25 89 1009.8
20260506093550 65 98 0.0 5.2 0.00 1.36 1.25 94 1009.7
20260506093053 64 86 0.0 5.2 0.00 1.36 1.25 94 1009.8
20260506092549 63 103 0.9 4.3 0.04 1.36 1.25 93 1009.7
20260506092047 63 0 0.0 4.3 0.05 1.36 1.25 96 1009.8
20260506091553 62 123 0.9 2.6 0.06 1.36 1.25 96 1009.9
20260506091048 62 0 0.0 4.3 0.07 1.36 1.25 97 1009.8
20260506090546 61 0 0.9 4.3 0.09 1.36 1.25 96 1009.8
20260506090051 60 214 0.9 4.3 0.10 1.36 1.25 97 1009.9
20260506085547 60 214 0.9 3.5 0.10 1.38 1.25 97 1010.0
20260506085051 60 239 0.0 0.9 0.11 1.38 1.25 98 1010.0
20260506084554 59 0 0.0 0.9 0.11 1.38 1.25 97 1010.0
20260506084047 59 0 0.0 0.9 0.11 1.38 1.25 97 1010.0
20260506083548 59 125 0.0 0.9 0.11 1.38 1.25 97 1010.1
20260506083054 58 0 0.0 0.9 0.11 1.37 1.24 97 1010.1
20260506082547 58 0 0.0 0.9 0.07 1.33 1.20 97 1010.1
20260506082049 58 0 0.0 2.6 0.07 1.33 1.19 97 1010.0
20260506081606 58 97 0.0 2.6 0.07 1.32 1.18 97 1010.0
20260506081049 58 0 0.9 2.6 0.06 1.30 1.17 97 1010.1
20260506080549 58 0 0.0 4.3 0.05 1.29 1.15 97 1010.1
20260506073052 58 0 0.0 1.7 0.07 1.27 1.13 97 1010.0
20260506072547 58 0 0.0 1.7 0.07 1.27 1.13 97 1010.1
20260506072046 58 0 0.0 1.7 0.07 1.26 1.12 97 1010.0
20260506071551 57 0 0.0 1.7 0.07 1.25 1.11 97 1010.1
20260506071047 57 0 0.0 1.7 0.09 1.25 1.11 97 1010.2
20260506070546 57 0 0.0 1.7 0.11 1.24 1.10 97 1010.2
20260506062048 56 88 0.0 1.7 0.21 1.37 1.04 97 1010.4
20260506061551 56 0 0.0 1.7 0.21 1.37 1.03 97 1010.4
20260506061049 56 121 0.0 0.9 0.18 1.33 1.00 97 1010.5
20260506060549 56 0 0.0 0.9 0.17 1.32 0.99 97 1010.4
20260506051052 56 0 0.0 0.9 0.15 1.22 0.82 97 1010.4
20260506050548 56 0 0.0 0.9 0.18 1.21 0.81 97 1010.5
20260506045048 56 0 0.0 0.9 0.26 1.20 0.81 97 1010.7
20260506044556 56 0 0.0 1.7 0.27 1.19 0.80 97 1010.9
20260506044048 56 0 0.0 1.7 0.28 1.18 0.79 97 1010.8
20260506043548 56 212 0.0 2.6 0.28 1.17 0.77 97 1010.9
20260506043057 56 0 0.9 2.6 0.26 1.15 0.76 97 1010.7
20260506042549 56 93 0.9 1.7 0.24 1.13 0.74 97 1010.4
20260506042049 56 103 0.0 0.9 0.22 1.11 0.71 97 1010.6
20260506041553 56 0 0.0 1.7 0.20 1.09 0.70 97 1010.8
20260506041048 56 0 0.0 1.7 0.17 1.06 0.66 97 1010.9
20260506040552 56 217 0.0 4.3 0.12 1.01 0.62 97 1011.2
20260506040057 56 0 0.9 4.3 0.09 0.98 0.59 97 1011.1
20260506035548 56 105 0.9 4.3 0.07 0.96 0.56 97 1011.1
20260506035049 56 106 0.9 2.6 0.05 0.93 0.54 97 1011.0
20260506034610 56 153 0.0 2.6 0.04 0.92 0.52 97 1010.9
20260506034049 56 165 0.0 2.6 0.03 0.90 0.51 97 1010.9
20260506033548 57 172 0.0 2.6 0.04 0.88 0.49 97 1010.9
20260506033051 57 126 0.0 2.6 0.07 0.88 0.49 97 1010.9
20260506032547 57 130 0.0 1.7 0.07 0.88 0.49 97 1010.9
20260506032049 57 0 0.0 1.7 0.08 0.88 0.49 97 1010.8
20260506031554 57 0 0.0 1.7 0.10 0.88 0.49 97 1010.9
20260506031048 57 0 0.0 1.7 0.11 0.88 0.49 97 1010.8
20260506030548 58 0 0.0 1.7 0.12 0.88 0.49 97 1010.8
20260506030052 58 206 0.0 1.7 0.13 0.88 0.49 97 1010.9
20260506025549 58 0 0.0 2.6 0.13 0.88 0.49 97 1010.8
20260506025049 58 210 0.9 2.6 0.12 0.88 0.48 97 1010.9
20260506024555 58 218 0.0 0.9 0.12 0.87 0.48 97 1011.0
20260506024047 58 0 0.0 1.7 0.12 0.86 0.47 97 1010.8
20260506023551 58 0 0.0 1.7 0.12 0.84 0.44 97 1011.1
20260506023058 58 122 0.0 1.7 0.11 0.81 0.42 97 1011.0
20260506022548 58 92 0.0 1.7 0.11 0.81 0.41 97 1011.1
20260506022046 58 0 0.0 0.9 0.12 0.80 0.40 97 1011.1
20260506021553 58 0 0.0 1.7 0.13 0.78 0.39 97 1011.3
20260506021049 58 213 0.9 2.6 0.14 0.77 0.37 97 1011.4
20260506020547 58 227 0.0 2.6 0.14 0.76 0.37 97 1011.5
20260506020056 58 242 0.9 2.6 0.14 0.75 0.36 97 1011.6
20260506015549 58 217 0.0 0.9 0.16 0.75 0.36 97 1011.5
20260506015052 58 0 0.0 1.7 0.19 0.75 0.36 97 1011.4
20260506014552 58 0 0.0 1.7 0.21 0.74 0.35 97 1011.3
20260506014051 58 330 0.9 1.7 0.22 0.73 0.33 97 1011.2
20260506013550 58 0 0.0 1.7 0.22 0.71 0.32 97 1011.6
20260506013110 58 0 0.0 1.7 0.24 0.70 0.31 97 1011.7
20260506012549 58 0 0.0 0.9 0.24 0.69 0.29 97 1011.9
20260506012047 58 334 0.0 1.7 0.23 0.67 0.28 97 1011.9
20260506011557 58 334 0.0 1.7 0.22 0.65 0.25 97 1011.9
20260506011046 58 0 0.9 1.7 0.20 0.62 0.23 97 1011.8
20260506010548 58 21 0.0 0.9 0.18 0.61 0.22 97 1012.0
20260506010112 58 0 0.0 0.9 0.18 0.60 0.21 97 1012.2
20260506005546 58 0 0.0 0.9 0.17 0.59 0.19 97 1012.2
20260506005048 58 274 0.0 0.9 0.14 0.55 0.16 97 1012.2
20260506004556 58 232 0.0 0.0 0.11 0.53 0.14 97 1011.9
20260506004050 58 203 0.0 0.0 0.08 0.50 0.11 97 1011.8
20260506003551 58 0 0.0 0.0 0.07 0.48 0.09 97 1011.8
20260506003056 58 0 0.0 0.9 0.05 0.46 0.07 97 1011.6
20260506002549 58 203 0.0 0.9 0.03 0.44 0.05 97 1011.5
20260506002048 58 0 0.0 0.0 0.03 0.44 0.04 97 1011.6
20260506001602 58 0 0.0 0.0 0.03 0.43 0.03 97 1011.6
20260506001049 58 0 0.0 0.0 0.03 0.42 0.03 97 1011.6
20260506000549 58 0 0.0 0.9 0.03 0.42 0.03 96 1011.6
20260506000056 58 0 0.0 0.9 0.02 0.41 0.02 96 1011.8
20260505235548 58 0 0.0 0.9 0.02 0.41 0.02 96 1011.9
20260505235050 58 0 0.0 0.9 0.02 0.41 0.02 96 1012.2
20260505234555 58 89 0.0 0.9 0.02 0.41 0.02 96 1012.3
20260505234050 58 108 0.0 0.9 0.02 0.41 0.02 96 1012.3
20260505233548 58 0 0.0 0.9 0.01 0.40 0.01 96 1012.3
20260505233105 58 0 0.0 0.9 0.01 0.40 0.01 96 1012.2
20260505232550 58 282 0.0 0.0 0.01 0.40 0.01 96 1012.2
20260505232048 58 0 0.0 0.0 0.01 0.40 0.01 96 1012.3
20260505231554 58 0 0.0 0.9 0.00 0.40 0.00 96 1012.3
20260505231047 57 0 0.0 0.9 0.00 0.39 0.00 96 1012.3
20260505230547 58 281 0.0 0.9 0.00 0.39 0.00 95 1012.2
20260505230058 58 0 0.0 0.0 0.00 0.39 0.00 96 1012.3
20260505225548 57 0 0.0 0.0 0.00 0.39 0.00 96 1012.3
20260505225047 57 0 0.0 0.0 0.00 0.39 0.00 95 1012.4
20260505224555 57 0 0.0 0.0 0.00 0.39 0.00 95 1012.3
20260505224051 57 0 0.0 0.9 0.00 0.39 0.00 95 1012.4
20260505223547 58 0 0.0 1.7 0.00 0.39 0.00 96 1012.5
20260505223056 57 0 0.0 1.7 0.00 0.39 0.00 95 1012.5
20260505222548 57 277 0.0 1.7 0.00 0.39 0.00 95 1012.5
20260505222047 57 268 0.0 1.7 0.00 0.39 0.00 95 1012.7
20260505221552 57 243 0.0 0.9 0.00 0.39 0.00 95 1012.7
20260505221046 58 0 0.0 0.9 0.00 0.39 0.00 95 1012.8
20260505220616 58 0 0.0 0.0 0.00 0.39 0.00 95 1012.9
20260505220055 58 0 0.0 0.0 0.00 0.39 0.00 95 1012.9
20260505215547 58 0 0.0 0.9 0.00 0.39 0.39 95 1012.9